createdAt,value
2017-02-23T00:00:52.672Z,8
2017-02-23T00:01:52.613Z,8
2017-02-23T00:02:52.551Z,8
2017-02-23T00:03:52.488Z,8
2017-02-23T00:04:52.415Z,8
2017-02-23T00:05:52.035Z,8
2017-02-23T00:06:52.287Z,8
2017-02-23T00:07:52.241Z,8
2017-02-23T00:08:52.175Z,8
2017-02-23T00:09:52.111Z,8
2017-02-23T00:10:52.066Z,0
2017-02-23T00:11:51.983Z,0
2017-02-23T00:12:51.922Z,0
2017-02-23T00:13:51.865Z,0
2017-02-23T00:14:51.787Z,0
2017-02-23T00:15:51.741Z,0
2017-02-23T00:16:51.672Z,0
2017-02-23T00:17:51.225Z,0
2017-02-23T00:18:51.162Z,0
2017-02-23T00:19:51.491Z,0
2017-02-23T00:20:51.433Z,0
2017-02-23T00:21:51.364Z,0
2017-02-23T00:22:51.296Z,0
2017-02-23T00:23:50.848Z,0
2017-02-23T00:24:51.175Z,0
2017-02-23T00:25:51.124Z,0
2017-02-23T00:26:51.059Z,0
2017-02-23T00:27:50.990Z,0
2017-02-23T00:28:50.917Z,0
2017-02-23T00:29:50.866Z,0
2017-02-23T00:30:50.809Z,0
2017-02-23T00:31:50.735Z,0
2017-02-23T00:32:50.297Z,0
2017-02-23T00:33:50.238Z,0
2017-02-23T00:34:50.558Z,0
2017-02-23T00:35:50.105Z,0
2017-02-23T00:36:50.437Z,0
2017-02-23T00:37:49.980Z,0
2017-02-23T00:38:50.305Z,0
2017-02-23T00:39:50.238Z,0
2017-02-23T00:40:50.188Z,0
2017-02-23T00:41:49.733Z,0
2017-02-23T00:42:50.072Z,0
2017-02-23T00:43:49.613Z,0
2017-02-23T00:44:49.947Z,0
2017-02-23T00:45:49.866Z,0
2017-02-23T00:46:49.421Z,0
2017-02-23T00:47:49.747Z,0
2017-02-23T00:48:49.679Z,0
2017-02-23T00:49:49.631Z,0
2017-02-23T00:50:49.569Z,0
2017-02-23T00:51:48.734Z,0
2017-02-23T00:52:49.442Z,0
2017-02-23T00:53:49.370Z,0
2017-02-23T00:54:49.316Z,0
2017-02-23T00:55:49.249Z,0
2017-02-23T00:56:49.197Z,0
2017-02-23T00:57:49.121Z,0
2017-02-23T00:58:48.683Z,0
2017-02-23T00:59:49.000Z,0
2017-02-23T01:01:18.531Z,0
2017-02-23T01:02:18.270Z,0
2017-02-23T01:03:18.201Z,0
2017-02-23T01:04:18.152Z,0
2017-02-23T01:05:17.720Z,0
2017-02-23T01:06:18.044Z,0
2017-02-23T01:07:17.959Z,0
2017-02-23T01:08:17.898Z,0
2017-02-23T01:09:17.833Z,0
2017-02-23T01:10:18.072Z,0
2017-02-23T01:11:17.729Z,0
2017-02-23T01:12:17.287Z,0
2017-02-23T01:13:17.586Z,0
2017-02-23T01:14:17.527Z,0
2017-02-23T01:15:17.084Z,0
2017-02-23T01:16:17.025Z,0
2017-02-23T01:17:16.968Z,0
2017-02-23T01:18:17.270Z,0
2017-02-23T01:19:17.225Z,0
2017-02-23T01:20:17.146Z,0
2017-02-23T01:21:16.717Z,0
2017-02-23T01:22:17.052Z,0
2017-02-23T01:23:16.577Z,0
2017-02-23T01:24:16.905Z,0
2017-02-23T01:25:16.837Z,0
2017-02-23T01:26:16.774Z,0
2017-02-23T01:27:16.717Z,0
2017-02-23T01:28:16.699Z,0
2017-02-23T01:29:16.600Z,0
2017-02-23T01:30:15.762Z,0
2017-02-23T01:31:16.082Z,0
2017-02-23T01:32:16.396Z,0
2017-02-23T01:33:16.355Z,0
2017-02-23T01:34:15.925Z,0
2017-02-23T01:35:16.217Z,0
2017-02-23T01:36:15.768Z,0
2017-02-23T01:37:15.702Z,0
2017-02-23T01:38:15.648Z,0
2017-02-23T01:39:15.967Z,0
2017-02-23T01:40:15.131Z,0
2017-02-23T01:41:15.852Z,0
2017-02-23T01:42:15.779Z,0
2017-02-23T01:43:14.949Z,0
2017-02-23T01:44:15.282Z,0
2017-02-23T01:45:15.210Z,0
2017-02-23T01:46:15.531Z,0
2017-02-23T01:47:15.486Z,0
2017-02-23T01:48:15.430Z,0
2017-02-23T01:49:15.342Z,0
2017-02-23T01:50:14.917Z,0
2017-02-23T01:51:14.847Z,0
2017-02-23T01:52:15.182Z,0
2017-02-23T01:53:14.707Z,0
2017-02-23T01:54:15.038Z,0
2017-02-23T01:55:14.224Z,0
2017-02-23T01:56:14.529Z,0
2017-02-23T01:57:14.847Z,0
2017-02-23T01:58:14.011Z,0
2017-02-23T01:59:14.728Z,0
2017-02-23T02:00:14.687Z,0
2017-02-23T02:01:14.239Z,0
2017-02-23T02:02:14.170Z,0
2017-02-23T02:03:14.496Z,0
2017-02-23T02:04:14.455Z,0
2017-02-23T02:05:14.384Z,0
2017-02-23T02:06:13.915Z,0
2017-02-23T02:07:14.222Z,0
2017-02-23T02:08:14.167Z,0
2017-02-23T02:09:14.158Z,0
2017-02-23T02:10:13.665Z,0
2017-02-23T02:11:13.989Z,0
2017-02-23T02:12:13.543Z,0
2017-02-23T02:13:13.851Z,0
2017-02-23T02:14:13.414Z,0
2017-02-23T02:15:13.750Z,0
2017-02-23T02:16:13.680Z,0
2017-02-23T02:17:13.610Z,0
2017-02-23T02:18:13.540Z,0
2017-02-23T02:19:13.510Z,0
2017-02-23T02:20:13.038Z,0
2017-02-23T02:21:12.972Z,0
2017-02-23T02:22:13.311Z,0
2017-02-23T02:23:13.235Z,0
2017-02-23T02:24:12.801Z,0
2017-02-23T02:25:12.728Z,0
2017-02-23T02:26:12.676Z,0
2017-02-23T02:27:13.010Z,0
2017-02-23T02:28:12.551Z,0
2017-02-23T02:29:12.482Z,0
2017-02-23T02:30:12.804Z,0
2017-02-23T02:31:12.743Z,0
2017-02-23T02:32:12.673Z,0
2017-02-23T02:33:12.622Z,0
2017-02-23T02:34:12.169Z,0
2017-02-23T02:35:12.126Z,0
2017-02-23T02:36:12.457Z,0
2017-02-23T02:37:12.373Z,0
2017-02-23T02:38:12.305Z,0
2017-02-23T02:39:12.236Z,0
2017-02-23T02:40:11.809Z,0
2017-02-23T02:41:12.135Z,0
2017-02-23T02:42:12.063Z,0
2017-02-23T02:43:11.992Z,0
2017-02-23T02:44:11.973Z,0
2017-02-23T02:45:11.869Z,0
2017-02-23T02:46:11.425Z,0
2017-02-23T02:47:10.978Z,0
2017-02-23T02:48:11.293Z,0
2017-02-23T02:49:11.616Z,0
2017-02-23T02:50:11.558Z,0
2017-02-23T02:51:11.500Z,0
2017-02-23T02:52:11.432Z,0
2017-02-23T02:53:10.613Z,0
2017-02-23T02:54:10.933Z,0
2017-02-23T02:55:11.254Z,0
2017-02-23T02:56:10.808Z,0
2017-02-23T02:57:10.743Z,0
2017-02-23T02:58:10.676Z,0
2017-02-23T02:59:10.626Z,0
2017-02-23T03:00:10.547Z,0
2017-02-23T03:01:10.495Z,0
2017-02-23T03:02:10.812Z,0
2017-02-23T03:03:10.750Z,0
2017-02-23T03:04:10.700Z,0
2017-02-23T03:05:10.626Z,0
2017-02-23T03:06:10.177Z,0
2017-02-23T03:07:09.739Z,0
2017-02-23T03:08:10.058Z,0
2017-02-23T03:09:10.383Z,0
2017-02-23T03:10:10.330Z,0
2017-02-23T03:11:09.870Z,0
2017-02-23T03:12:10.224Z,0
2017-02-23T03:13:09.758Z,0
2017-02-23T03:14:09.684Z,0
2017-02-23T03:15:10.097Z,0
2017-02-23T03:16:09.943Z,0
2017-02-23T03:17:09.881Z,0
2017-02-23T03:18:09.840Z,0
2017-02-23T03:19:09.767Z,0
2017-02-23T03:20:09.699Z,0
2017-02-23T03:21:09.635Z,0
2017-02-23T03:22:09.593Z,0
2017-02-23T03:23:09.553Z,0
2017-02-23T03:24:09.469Z,0
2017-02-23T03:25:09.445Z,0
2017-02-23T03:26:09.319Z,0
2017-02-23T03:27:09.260Z,0
2017-02-23T03:28:09.208Z,0
2017-02-23T03:29:09.173Z,0
2017-02-23T03:30:09.129Z,0
2017-02-23T03:31:09.013Z,0
2017-02-23T03:32:08.566Z,0
2017-02-23T03:33:08.888Z,0
2017-02-23T03:34:08.836Z,0
2017-02-23T03:35:08.398Z,0
2017-02-23T03:36:08.713Z,0
2017-02-23T03:37:08.644Z,0
2017-02-23T03:38:08.586Z,0
2017-02-23T03:39:08.516Z,0
2017-02-23T03:40:08.126Z,0
2017-02-23T03:41:08.436Z,0
2017-02-23T03:42:07.974Z,0
2017-02-23T03:43:08.266Z,0
2017-02-23T03:44:08.203Z,0
2017-02-23T03:45:07.792Z,0
2017-02-23T03:46:07.711Z,0
2017-02-23T03:47:08.064Z,0
2017-02-23T03:48:07.989Z,0
2017-02-23T03:49:07.893Z,0
2017-02-23T03:50:07.451Z,0
2017-02-23T03:51:07.775Z,0
2017-02-23T03:52:07.746Z,0
2017-02-23T03:53:07.654Z,0
2017-02-23T03:54:07.585Z,0
2017-02-23T03:55:07.598Z,0
2017-02-23T03:56:07.463Z,0
2017-02-23T03:57:07.415Z,0
2017-02-23T03:58:07.350Z,0
2017-02-23T03:59:07.277Z,0
2017-02-23T04:00:07.211Z,0
2017-02-23T04:01:07.171Z,0
2017-02-23T04:02:07.096Z,0
2017-02-23T04:03:07.026Z,0
2017-02-23T04:04:06.976Z,0
2017-02-23T04:05:06.532Z,0
2017-02-23T04:06:06.867Z,0
2017-02-23T04:07:06.773Z,0
2017-02-23T04:08:06.717Z,0
2017-02-23T04:09:06.676Z,0
2017-02-23T04:10:06.617Z,0
2017-02-23T04:11:06.553Z,0
2017-02-23T04:12:06.475Z,0
2017-02-23T04:13:06.417Z,0
2017-02-23T04:14:06.357Z,0
2017-02-23T04:15:06.281Z,0
2017-02-23T04:16:06.221Z,0
2017-02-23T04:17:05.396Z,0
2017-02-23T04:18:06.097Z,0
2017-02-23T04:19:06.036Z,0
2017-02-23T04:20:05.973Z,0
2017-02-23T04:21:05.924Z,0
2017-02-23T04:22:05.481Z,0
2017-02-23T04:23:05.802Z,0
2017-02-23T04:24:05.735Z,0
2017-02-23T04:25:05.658Z,0
2017-02-23T04:26:05.617Z,0
2017-02-23T04:27:05.531Z,0
2017-02-23T04:28:05.484Z,0
2017-02-23T04:29:05.415Z,0
2017-02-23T04:30:05.359Z,0
2017-02-23T04:31:05.325Z,0
2017-02-23T04:32:05.233Z,0
2017-02-23T04:33:05.165Z,0
2017-02-23T04:34:05.113Z,0
2017-02-23T04:35:05.049Z,0
2017-02-23T04:36:04.983Z,0
2017-02-23T04:37:04.923Z,0
2017-02-23T04:38:04.856Z,0
2017-02-23T04:39:04.821Z,0
2017-02-23T04:40:04.750Z,0
2017-02-23T04:41:04.683Z,0
2017-02-23T04:42:04.624Z,0
2017-02-23T04:43:04.547Z,0
2017-02-23T04:44:04.491Z,0
2017-02-23T04:45:04.423Z,0
2017-02-23T04:46:04.357Z,0
2017-02-23T04:47:04.327Z,0
2017-02-23T04:48:04.290Z,0
2017-02-23T04:49:04.169Z,0
2017-02-23T04:50:04.116Z,0
2017-02-23T04:51:04.041Z,0
2017-02-23T04:52:04.013Z,0
2017-02-23T04:53:03.920Z,0
2017-02-23T04:54:03.494Z,0
2017-02-23T04:55:03.805Z,0
2017-02-23T04:56:03.731Z,0
2017-02-23T04:57:03.674Z,0
2017-02-23T04:58:03.612Z,0
2017-02-23T04:59:03.552Z,0
2017-02-23T05:00:03.490Z,0
2017-02-23T05:01:03.440Z,0
2017-02-23T05:02:02.992Z,0
2017-02-23T05:03:03.298Z,0
2017-02-23T05:04:03.260Z,0
2017-02-23T05:05:03.195Z,0
2017-02-23T05:06:03.122Z,0
2017-02-23T05:07:03.048Z,0
2017-02-23T05:08:02.988Z,0
2017-02-23T05:09:02.937Z,0
2017-02-23T05:10:02.508Z,0
2017-02-23T05:11:02.822Z,0
2017-02-23T05:12:01.989Z,0
2017-02-23T05:13:02.305Z,0
2017-02-23T05:14:02.260Z,0
2017-02-23T05:15:02.160Z,0
2017-02-23T05:16:02.504Z,0
2017-02-23T05:17:02.060Z,0
2017-02-23T05:18:02.366Z,0
2017-02-23T05:19:02.325Z,0
2017-02-23T05:20:02.250Z,0
2017-02-23T05:21:02.210Z,0
2017-02-23T05:22:02.131Z,0
2017-02-23T05:23:02.070Z,0
2017-02-23T05:24:02.003Z,0
2017-02-23T05:25:01.555Z,0
2017-02-23T05:26:01.864Z,0
2017-02-23T05:27:01.805Z,0
2017-02-23T05:28:01.761Z,0
2017-02-23T05:29:01.690Z,0
2017-02-23T05:30:01.623Z,0
2017-02-23T05:31:01.573Z,0
2017-02-23T05:32:01.500Z,0
2017-02-23T05:33:01.442Z,0
2017-02-23T05:34:01.377Z,0
2017-02-23T05:35:01.317Z,0
2017-02-23T05:36:00.875Z,0
2017-02-23T05:37:01.193Z,0
2017-02-23T05:38:01.121Z,0
2017-02-23T05:39:01.058Z,0
2017-02-23T05:40:01.003Z,0
2017-02-23T05:41:00.949Z,0
2017-02-23T05:42:00.952Z,0
2017-02-23T05:43:00.816Z,0
2017-02-23T05:44:00.758Z,0
2017-02-23T05:45:00.689Z,0
2017-02-23T05:46:00.643Z,0
2017-02-23T05:47:00.579Z,0
2017-02-23T05:48:00.527Z,0
2017-02-23T05:48:59.676Z,0
2017-02-23T05:49:59.613Z,0
2017-02-23T05:51:00.331Z,0
2017-02-23T05:52:00.260Z,0
2017-02-23T05:52:59.811Z,0
2017-02-23T05:54:00.148Z,0
2017-02-23T05:55:00.065Z,0
2017-02-23T05:56:00.016Z,0
2017-02-23T05:56:59.952Z,0
2017-02-23T05:57:59.888Z,0
2017-02-23T05:58:59.831Z,0
2017-02-23T05:59:59.766Z,0
2017-02-23T06:00:59.702Z,0
2017-02-23T06:01:59.636Z,0
2017-02-23T06:02:59.608Z,0
2017-02-23T06:03:59.510Z,4
2017-02-23T06:04:59.452Z,4
2017-02-23T06:05:59.398Z,4
2017-02-23T06:06:59.346Z,4
2017-02-23T06:07:59.317Z,4
2017-02-23T06:08:58.820Z,4
2017-02-23T06:09:59.134Z,4
2017-02-23T06:10:59.090Z,4
2017-02-23T06:11:59.026Z,4
2017-02-23T06:12:59.052Z,4
2017-02-23T06:13:58.901Z,4
2017-02-23T06:14:58.825Z,4
2017-02-23T06:15:58.379Z,4
2017-02-23T06:16:58.722Z,4
2017-02-23T06:17:58.646Z,4
2017-02-23T06:18:58.627Z,4
2017-02-23T06:19:58.523Z,4
2017-02-23T06:20:58.477Z,4
2017-02-23T06:21:58.406Z,4
2017-02-23T06:22:58.329Z,4
2017-02-23T06:23:58.266Z,4
2017-02-23T06:24:58.209Z,4
2017-02-23T06:25:58.163Z,4
2017-02-23T06:26:58.085Z,4
2017-02-23T06:27:58.052Z,4
2017-02-23T06:28:57.999Z,4
2017-02-23T06:29:57.511Z,4
2017-02-23T06:30:57.867Z,4
2017-02-23T06:31:57.795Z,8
2017-02-23T06:32:57.704Z,8
2017-02-23T06:33:57.278Z,8
2017-02-23T06:34:57.685Z,4
2017-02-23T06:35:57.149Z,4
2017-02-23T06:36:57.080Z,8
2017-02-23T06:37:57.398Z,8
2017-02-23T06:38:57.333Z,8
2017-02-23T06:39:57.269Z,8
2017-02-23T06:40:57.240Z,8
2017-02-23T06:41:57.150Z,8
2017-02-23T06:42:57.138Z,8
2017-02-23T06:43:57.035Z,8
2017-02-23T06:44:56.995Z,8
2017-02-23T06:45:56.907Z,8
2017-02-23T06:46:56.853Z,8
2017-02-23T06:47:56.791Z,8
2017-02-23T06:48:56.710Z,8
2017-02-23T06:49:56.658Z,8
2017-02-23T06:50:56.591Z,8
2017-02-23T06:51:56.535Z,8
2017-02-23T06:52:56.468Z,8
2017-02-23T06:53:56.405Z,8
2017-02-23T06:54:56.337Z,8
2017-02-23T06:55:56.294Z,8
2017-02-23T06:56:56.238Z,4
2017-02-23T06:57:56.164Z,4
2017-02-23T06:58:56.105Z,4
2017-02-23T06:59:55.646Z,4
2017-02-23T07:00:55.990Z,4
2017-02-23T07:01:55.915Z,8
2017-02-23T07:02:55.850Z,8
2017-02-23T07:03:55.788Z,8
2017-02-23T07:04:55.341Z,8
2017-02-23T07:05:55.672Z,8
2017-02-23T07:06:55.591Z,4
2017-02-23T07:07:55.559Z,8
2017-02-23T07:08:55.113Z,4
2017-02-23T07:09:55.407Z,8
2017-02-23T07:10:55.371Z,4
2017-02-23T07:11:55.282Z,4
2017-02-23T07:12:55.237Z,8
2017-02-23T07:13:55.166Z,12
2017-02-23T07:14:54.733Z,8
2017-02-23T07:15:55.046Z,8
2017-02-23T07:16:54.998Z,12
2017-02-23T07:17:54.910Z,8
2017-02-23T07:18:54.853Z,8
2017-02-23T07:19:54.783Z,12
2017-02-23T07:20:54.763Z,8
2017-02-23T07:21:54.675Z,8
2017-02-23T07:22:54.620Z,8
2017-02-23T07:23:54.624Z,12
2017-02-23T07:24:54.481Z,12
2017-02-23T07:25:54.436Z,12
2017-02-23T07:26:54.360Z,16
2017-02-23T07:27:54.288Z,12
2017-02-23T07:28:54.230Z,16
2017-02-23T07:29:54.177Z,16
2017-02-23T07:30:54.106Z,16
2017-02-23T07:31:53.653Z,16
2017-02-23T07:32:53.988Z,16
2017-02-23T07:33:53.150Z,16
2017-02-23T07:34:53.864Z,12
2017-02-23T07:35:53.788Z,16
2017-02-23T07:36:53.349Z,16
2017-02-23T07:37:53.290Z,12
2017-02-23T07:38:53.229Z,12
2017-02-23T07:39:53.562Z,16
2017-02-23T07:40:53.502Z,16
2017-02-23T07:41:53.427Z,16
2017-02-23T07:42:53.370Z,16
2017-02-23T07:43:53.305Z,16
2017-02-23T07:44:53.235Z,16
2017-02-23T07:45:53.189Z,20
2017-02-23T07:46:53.123Z,20
2017-02-23T07:47:53.078Z,16
2017-02-23T07:48:52.221Z,20
2017-02-23T07:49:52.921Z,20
2017-02-23T07:50:52.878Z,20
2017-02-23T07:51:52.809Z,16
2017-02-23T07:52:52.346Z,20
2017-02-23T07:53:52.317Z,16
2017-02-23T07:54:52.243Z,16
2017-02-23T07:55:52.249Z,16
2017-02-23T07:56:52.511Z,16
2017-02-23T07:57:52.067Z,16
2017-02-23T07:58:52.374Z,16
2017-02-23T07:59:52.301Z,16
2017-02-23T08:00:52.257Z,16
2017-02-23T08:01:52.191Z,92
2017-02-23T08:02:52.139Z,128
2017-02-23T08:03:52.050Z,144
2017-02-23T08:04:52.000Z,152
2017-02-23T08:05:51.942Z,148
2017-02-23T08:06:51.868Z,152
2017-02-23T08:07:51.812Z,152
2017-02-23T08:08:51.753Z,152
2017-02-23T08:09:51.703Z,148
2017-02-23T08:10:50.845Z,148
2017-02-23T08:11:51.563Z,148
2017-02-23T08:12:51.530Z,148
2017-02-23T08:13:51.465Z,148
2017-02-23T08:14:51.023Z,148
2017-02-23T08:15:51.308Z,152
2017-02-23T08:16:51.272Z,148
2017-02-23T08:17:51.180Z,152
2017-02-23T08:18:50.747Z,148
2017-02-23T08:19:50.673Z,152
2017-02-23T08:20:50.996Z,152
2017-02-23T08:21:50.953Z,148
2017-02-23T08:22:50.897Z,152
2017-02-23T08:23:50.032Z,148
2017-02-23T08:24:50.754Z,152
2017-02-23T08:25:50.685Z,152
2017-02-23T08:26:50.623Z,144
2017-02-23T08:27:50.569Z,144
2017-02-23T08:28:50.501Z,144
2017-02-23T08:29:50.069Z,144
2017-02-23T08:30:50.385Z,144
2017-02-23T08:31:50.371Z,144
2017-02-23T08:32:50.268Z,144
2017-02-23T08:33:50.258Z,144
2017-02-23T08:34:50.126Z,144
2017-02-23T08:35:50.083Z,140
2017-02-23T08:36:50.035Z,144
2017-02-23T08:37:49.938Z,144
2017-02-23T08:38:49.922Z,144
2017-02-23T08:39:49.430Z,144
2017-02-23T08:40:50.005Z,144
2017-02-23T08:41:49.712Z,144
2017-02-23T08:42:49.288Z,144
2017-02-23T08:43:49.190Z,144
2017-02-23T08:44:49.523Z,144
2017-02-23T08:45:49.469Z,144
2017-02-23T08:46:49.385Z,144
2017-02-23T08:47:48.939Z,144
2017-02-23T08:48:49.262Z,148
2017-02-23T08:49:49.217Z,144
2017-02-23T08:50:49.166Z,144
2017-02-23T08:51:49.104Z,144
2017-02-23T08:52:49.010Z,20
2017-02-23T08:53:48.956Z,16
2017-02-23T08:54:48.892Z,16
2017-02-23T08:55:48.843Z,16
2017-02-23T08:56:48.798Z,16
2017-02-23T08:57:48.705Z,16
2017-02-23T08:58:48.653Z,16
2017-02-23T08:59:48.576Z,16
2017-02-23T09:00:48.599Z,16
2017-02-23T09:01:48.133Z,12
2017-02-23T09:02:48.618Z,12
2017-02-23T09:03:48.331Z,12
2017-02-23T09:04:48.272Z,12
2017-02-23T09:05:48.205Z,12
2017-02-23T09:06:48.173Z,12
2017-02-23T09:07:48.097Z,12
2017-02-23T09:08:48.046Z,12
2017-02-23T09:09:47.966Z,12
2017-02-23T09:10:47.910Z,12
2017-02-23T09:11:47.829Z,12
2017-02-23T09:12:47.788Z,8
2017-02-23T09:13:47.706Z,8
2017-02-23T09:14:46.872Z,12
2017-02-23T09:15:47.882Z,12
2017-02-23T09:16:47.549Z,12
2017-02-23T09:17:47.495Z,12
2017-02-23T09:18:47.063Z,8
2017-02-23T09:19:46.977Z,12
2017-02-23T09:20:47.006Z,12
2017-02-23T09:21:47.214Z,12
2017-02-23T09:22:47.163Z,16
2017-02-23T09:23:47.100Z,16
2017-02-23T09:24:47.038Z,16
2017-02-23T09:25:46.856Z,16
2017-02-23T09:26:46.997Z,12
2017-02-23T09:27:46.460Z,12
2017-02-23T09:28:46.832Z,12
2017-02-23T09:29:46.331Z,12
2017-02-23T09:30:46.285Z,12
2017-02-23T09:31:46.605Z,12
2017-02-23T09:32:45.794Z,16
2017-02-23T09:33:46.472Z,12
2017-02-23T09:34:46.445Z,12
2017-02-23T09:35:45.973Z,16
2017-02-23T09:36:46.288Z,16
2017-02-23T09:37:45.844Z,16
2017-02-23T09:38:46.169Z,16
2017-02-23T09:39:46.110Z,16
2017-02-23T09:40:45.743Z,12
2017-02-23T09:41:45.971Z,12
2017-02-23T09:42:45.926Z,16
2017-02-23T09:43:45.480Z,16
2017-02-23T09:44:45.787Z,16
2017-02-23T09:45:45.765Z,16
2017-02-23T09:46:45.675Z,16
2017-02-23T09:47:45.217Z,16
2017-02-23T09:48:45.547Z,12
2017-02-23T09:49:45.537Z,12
2017-02-23T09:50:45.461Z,12
2017-02-23T09:51:45.568Z,12
2017-02-23T09:52:45.300Z,12
2017-02-23T09:53:45.317Z,12
2017-02-23T09:54:45.414Z,16
2017-02-23T09:55:44.920Z,16
2017-02-23T09:56:45.064Z,12
2017-02-23T09:57:44.984Z,12
2017-02-23T09:58:44.918Z,12
2017-02-23T09:59:44.482Z,12
2017-02-23T10:00:44.802Z,12
2017-02-23T10:01:44.729Z,16
2017-02-23T10:02:44.683Z,16
2017-02-23T10:03:44.610Z,16
2017-02-23T10:04:44.182Z,16
2017-02-23T10:05:44.487Z,20
2017-02-23T10:06:44.425Z,20
2017-02-23T10:07:44.364Z,20
2017-02-23T10:08:44.301Z,20
2017-02-23T10:09:43.861Z,20
2017-02-23T10:10:43.809Z,20
2017-02-23T10:11:44.119Z,20
2017-02-23T10:12:43.675Z,20
2017-02-23T10:13:43.610Z,20
2017-02-23T10:14:43.965Z,20
2017-02-23T10:15:43.501Z,16
2017-02-23T10:16:43.425Z,16
2017-02-23T10:17:43.348Z,16
2017-02-23T10:18:43.694Z,16
2017-02-23T10:19:43.637Z,16
2017-02-23T10:20:43.680Z,16
2017-02-23T10:21:43.116Z,20
2017-02-23T10:22:43.674Z,20
2017-02-23T10:23:42.990Z,16
2017-02-23T10:24:42.918Z,16
2017-02-23T10:25:43.342Z,16
2017-02-23T10:26:42.829Z,16
2017-02-23T10:27:43.151Z,16
2017-02-23T10:28:43.073Z,20
2017-02-23T10:29:43.591Z,16
2017-02-23T10:30:42.571Z,104
2017-02-23T10:31:42.878Z,136
2017-02-23T10:32:42.808Z,148
2017-02-23T10:33:42.759Z,148
2017-02-23T10:34:42.326Z,148
2017-02-23T10:35:42.248Z,148
2017-02-23T10:36:42.565Z,148
2017-02-23T10:37:42.128Z,148
2017-02-23T10:38:41.689Z,152
2017-02-23T10:39:41.604Z,152
2017-02-23T10:40:42.311Z,152
2017-02-23T10:41:42.249Z,156
2017-02-23T10:42:42.004Z,156
2017-02-23T10:43:42.127Z,152
2017-02-23T10:44:42.085Z,152
2017-02-23T10:45:41.619Z,156
2017-02-23T10:46:41.954Z,156
2017-02-23T10:47:41.952Z,160
2017-02-23T10:48:41.832Z,156
2017-02-23T10:49:41.760Z,156
2017-02-23T10:50:41.692Z,160
2017-02-23T10:51:41.273Z,160
2017-02-23T10:52:41.575Z,160
2017-02-23T10:53:41.130Z,156
2017-02-23T10:54:41.448Z,156
2017-02-23T10:55:41.397Z,156
2017-02-23T10:56:41.352Z,152
2017-02-23T10:57:40.984Z,156
2017-02-23T10:58:41.213Z,156
2017-02-23T10:59:40.754Z,156
2017-02-23T11:00:41.092Z,152
2017-02-23T11:01:40.627Z,148
2017-02-23T11:02:41.070Z,152
2017-02-23T11:03:40.918Z,152
2017-02-23T11:04:40.439Z,152
2017-02-23T11:05:40.410Z,152
2017-02-23T11:06:40.327Z,152
2017-02-23T11:07:40.655Z,148
2017-02-23T11:08:40.589Z,152
2017-02-23T11:09:40.531Z,148
2017-02-23T11:10:40.792Z,148
2017-02-23T11:11:40.387Z,144
2017-02-23T11:12:40.364Z,148
2017-02-23T11:13:40.312Z,148
2017-02-23T11:14:40.222Z,144
2017-02-23T11:15:40.153Z,144
2017-02-23T11:16:40.087Z,148
2017-02-23T11:17:39.651Z,144
2017-02-23T11:18:40.044Z,144
2017-02-23T11:19:39.911Z,140
2017-02-23T11:20:39.851Z,140
2017-02-23T11:21:39.801Z,140
2017-02-23T11:22:39.710Z,140
2017-02-23T11:23:39.653Z,140
2017-02-23T11:24:39.603Z,140
2017-02-23T11:25:39.529Z,140
2017-02-23T11:26:39.084Z,144
2017-02-23T11:27:39.023Z,140
2017-02-23T11:28:39.350Z,144
2017-02-23T11:29:38.924Z,140
2017-02-23T11:30:39.218Z,140
2017-02-23T11:31:39.165Z,140
2017-02-23T11:32:38.325Z,140
2017-02-23T11:33:39.049Z,136
2017-02-23T11:34:38.993Z,140
2017-02-23T11:35:38.908Z,140
2017-02-23T11:36:38.846Z,144
2017-02-23T11:37:38.783Z,140
2017-02-23T11:38:38.965Z,140
2017-02-23T11:39:38.763Z,140
2017-02-23T11:40:38.614Z,140
2017-02-23T11:41:38.570Z,140
2017-02-23T11:42:38.492Z,140
2017-02-23T11:43:37.637Z,140
2017-02-23T11:44:38.371Z,144
2017-02-23T11:45:37.918Z,140
2017-02-23T11:46:37.465Z,140
2017-02-23T11:47:38.167Z,140
2017-02-23T11:48:37.739Z,144
2017-02-23T11:49:38.060Z,144
2017-02-23T11:50:38.000Z,140
2017-02-23T11:51:38.008Z,140
2017-02-23T11:52:37.868Z,140
2017-02-23T11:53:37.800Z,136
2017-02-23T11:54:37.744Z,140
2017-02-23T11:55:37.314Z,140
2017-02-23T11:56:37.621Z,140
2017-02-23T11:57:37.551Z,136
2017-02-23T11:58:37.499Z,136
2017-02-23T11:59:37.425Z,136
2017-02-23T12:00:37.377Z,136
2017-02-23T12:01:37.305Z,132
2017-02-23T12:02:37.249Z,132
2017-02-23T12:03:37.191Z,136
2017-02-23T12:04:37.125Z,136
2017-02-23T12:05:37.081Z,140
2017-02-23T12:06:37.035Z,140
2017-02-23T12:07:36.948Z,136
2017-02-23T12:08:36.906Z,136
2017-02-23T12:09:36.806Z,136
2017-02-23T12:10:36.756Z,132
2017-02-23T12:11:36.693Z,136
2017-02-23T12:12:36.638Z,132
2017-02-23T12:13:36.560Z,136
2017-02-23T12:14:36.518Z,136
2017-02-23T12:15:36.050Z,136
2017-02-23T12:16:36.380Z,136
2017-02-23T12:17:36.315Z,140
2017-02-23T12:18:36.275Z,136
2017-02-23T12:19:36.185Z,132
2017-02-23T12:20:36.155Z,136
2017-02-23T12:21:36.064Z,136
2017-02-23T12:22:36.019Z,136
2017-02-23T12:23:35.959Z,136
2017-02-23T12:24:35.579Z,140
2017-02-23T12:25:35.822Z,140
2017-02-23T12:26:35.785Z,136
2017-02-23T12:27:35.729Z,140
2017-02-23T12:28:35.656Z,136
2017-02-23T12:29:35.632Z,136
2017-02-23T12:30:35.586Z,136
2017-02-23T12:31:35.450Z,136
2017-02-23T12:32:35.035Z,132
2017-02-23T12:33:35.329Z,132
2017-02-23T12:34:35.338Z,132
2017-02-23T12:35:35.324Z,132
2017-02-23T12:36:35.209Z,132
2017-02-23T12:37:34.722Z,136
2017-02-23T12:38:34.642Z,136
2017-02-23T12:39:34.957Z,136
2017-02-23T12:40:35.290Z,136
2017-02-23T12:41:34.865Z,136
2017-02-23T12:42:34.791Z,136
2017-02-23T12:43:33.970Z,136
2017-02-23T12:44:34.266Z,136
2017-02-23T12:45:34.586Z,136
2017-02-23T12:46:34.154Z,132
2017-02-23T12:47:34.088Z,132
2017-02-23T12:48:34.020Z,132
2017-02-23T12:49:34.339Z,132
2017-02-23T12:50:34.599Z,132
2017-02-23T12:51:34.227Z,132
2017-02-23T12:52:34.169Z,136
2017-02-23T12:53:34.144Z,132
2017-02-23T12:54:33.663Z,136
2017-02-23T12:55:34.073Z,136
2017-02-23T12:56:33.946Z,136
2017-02-23T12:57:33.469Z,132
2017-02-23T12:58:33.813Z,136
2017-02-23T12:59:33.746Z,132
2017-02-23T13:00:33.283Z,136
2017-02-23T13:01:33.594Z,136
2017-02-23T13:02:33.550Z,136
2017-02-23T13:03:33.503Z,132
2017-02-23T13:04:33.109Z,136
2017-02-23T13:05:33.365Z,136
2017-02-23T13:06:33.293Z,136
2017-02-23T13:07:32.910Z,136
2017-02-23T13:08:32.798Z,140
2017-02-23T13:09:33.196Z,136
2017-02-23T13:10:32.502Z,132
2017-02-23T13:11:32.985Z,136
2017-02-23T13:12:32.929Z,132
2017-02-23T13:13:32.876Z,132
2017-02-23T13:14:32.424Z,136
2017-02-23T13:15:32.742Z,132
2017-02-23T13:16:32.709Z,136
2017-02-23T13:17:32.625Z,132
2017-02-23T13:18:32.170Z,136
2017-02-23T13:19:32.510Z,132
2017-02-23T13:20:32.451Z,132
2017-02-23T13:21:31.984Z,132
2017-02-23T13:22:32.320Z,128
2017-02-23T13:23:32.304Z,128
2017-02-23T13:24:32.204Z,128
2017-02-23T13:25:32.139Z,128
2017-02-23T13:26:32.090Z,132
2017-02-23T13:27:31.999Z,132
2017-02-23T13:28:31.964Z,136
2017-02-23T13:29:31.914Z,136
2017-02-23T13:30:31.868Z,136
2017-02-23T13:31:31.409Z,132
2017-02-23T13:32:31.720Z,132
2017-02-23T13:33:31.272Z,132
2017-02-23T13:34:31.613Z,132
2017-02-23T13:35:31.142Z,136
2017-02-23T13:36:31.518Z,132
2017-02-23T13:37:31.430Z,132
2017-02-23T13:38:31.349Z,132
2017-02-23T13:39:31.496Z,136
2017-02-23T13:40:31.219Z,136
2017-02-23T13:41:31.192Z,136
2017-02-23T13:42:30.745Z,136
2017-02-23T13:43:31.103Z,136
2017-02-23T13:44:31.023Z,136
2017-02-23T13:45:30.913Z,136
2017-02-23T13:46:30.886Z,136
2017-02-23T13:47:31.010Z,136
2017-02-23T13:48:30.804Z,132
2017-02-23T13:49:30.477Z,136
2017-02-23T13:50:30.646Z,136
2017-02-23T13:51:30.162Z,136
2017-02-23T13:52:30.490Z,136
2017-02-23T13:53:30.429Z,136
2017-02-23T13:54:30.372Z,136
2017-02-23T13:55:30.468Z,136
2017-02-23T13:56:30.305Z,136
2017-02-23T13:57:29.859Z,136
2017-02-23T13:58:30.020Z,136
2017-02-23T13:59:29.691Z,136
2017-02-23T14:00:29.974Z,136
2017-02-23T14:01:30.000Z,132
2017-02-23T14:02:29.515Z,136
2017-02-23T14:03:29.801Z,136
2017-02-23T14:04:29.792Z,136
2017-02-23T14:05:29.696Z,136
2017-02-23T14:06:29.647Z,136
2017-02-23T14:07:29.579Z,140
2017-02-23T14:08:29.496Z,136
2017-02-23T14:09:29.458Z,136
2017-02-23T14:10:28.973Z,136
2017-02-23T14:11:28.561Z,140
2017-02-23T14:12:29.280Z,136
2017-02-23T14:13:29.198Z,140
2017-02-23T14:14:29.112Z,140
2017-02-23T14:15:28.299Z,140
2017-02-23T14:16:28.983Z,136
2017-02-23T14:17:28.932Z,136
2017-02-23T14:18:28.880Z,136
2017-02-23T14:19:28.821Z,136
2017-02-23T14:20:28.390Z,136
2017-02-23T14:21:28.722Z,136